sensor_id;sensor_type;location;lat;lon;timestamp;P1;durP1;ratioP1;P2;durP2;ratioP2
40170;SDS011;37650;52.790;18.268;2023-01-28T00:01:16;13.70;;;5.80;;
40170;SDS011;37650;52.790;18.268;2023-01-28T00:04:37;9.30;;;4.90;;
40170;SDS011;37650;52.790;18.268;2023-01-28T00:07:59;9.50;;;5.10;;
40170;SDS011;37650;52.790;18.268;2023-01-28T00:11:21;10.80;;;4.30;;
40170;SDS011;37650;52.790;18.268;2023-01-28T00:14:42;7.90;;;4.50;;
40170;SDS011;37650;52.790;18.268;2023-01-28T00:18:06;20.80;;;8.00;;
40170;SDS011;37650;52.790;18.268;2023-01-28T00:21:27;21.40;;;9.30;;
40170;SDS011;37650;52.790;18.268;2023-01-28T00:24:48;24.70;;;7.60;;
40170;SDS011;37650;52.790;18.268;2023-01-28T00:28:09;9.50;;;5.90;;
40170;SDS011;37650;52.790;18.268;2023-01-28T00:31:30;12.80;;;5.90;;
40170;SDS011;37650;52.790;18.268;2023-01-28T00:34:54;11.30;;;5.80;;
40170;SDS011;37650;52.790;18.268;2023-01-28T00:38:15;9.20;;;5.20;;
40170;SDS011;37650;52.790;18.268;2023-01-28T00:41:36;6.40;;;4.10;;
40170;SDS011;37650;52.790;18.268;2023-01-28T00:44:57;8.00;;;4.20;;
40170;SDS011;37650;52.790;18.268;2023-01-28T00:48:19;7.90;;;4.70;;
40170;SDS011;37650;52.790;18.268;2023-01-28T00:51:40;7.00;;;4.40;;
40170;SDS011;37650;52.790;18.268;2023-01-28T00:55:01;8.30;;;4.60;;
40170;SDS011;37650;52.790;18.268;2023-01-28T00:58:23;7.40;;;5.00;;
40170;SDS011;37650;52.790;18.268;2023-01-28T01:01:44;7.60;;;4.90;;
40170;SDS011;37650;52.790;18.268;2023-01-28T01:05:06;8.10;;;4.90;;
40170;SDS011;37650;52.790;18.268;2023-01-28T01:08:27;7.00;;;4.40;;
40170;SDS011;37650;52.790;18.268;2023-01-28T01:11:54;7.50;;;4.20;;
40170;SDS011;37650;52.790;18.268;2023-01-28T01:15:16;6.50;;;4.80;;
40170;SDS011;37650;52.790;18.268;2023-01-28T01:18:38;7.30;;;4.60;;
40170;SDS011;37650;52.790;18.268;2023-01-28T01:22:03;8.50;;;5.40;;
40170;SDS011;37650;52.790;18.268;2023-01-28T01:25:25;8.40;;;5.00;;
40170;SDS011;37650;52.790;18.268;2023-01-28T01:28:46;8.00;;;4.70;;
40170;SDS011;37650;52.790;18.268;2023-01-28T01:32:07;8.00;;;4.60;;
40170;SDS011;37650;52.790;18.268;2023-01-28T01:35:29;6.20;;;4.30;;
40170;SDS011;37650;52.790;18.268;2023-01-28T01:38:53;7.40;;;4.90;;
40170;SDS011;37650;52.790;18.268;2023-01-28T01:42:15;7.20;;;4.70;;
40170;SDS011;37650;52.790;18.268;2023-01-28T01:45:36;7.40;;;4.20;;
40170;SDS011;37650;52.790;18.268;2023-01-28T01:48:58;6.20;;;3.50;;
40170;SDS011;37650;52.790;18.268;2023-01-28T01:52:28;7.30;;;4.10;;
40170;SDS011;37650;52.790;18.268;2023-01-28T01:55:54;6.80;;;3.60;;
40170;SDS011;37650;52.790;18.268;2023-01-28T01:59:24;5.80;;;3.60;;
40170;SDS011;37650;52.790;18.268;2023-01-28T02:02:48;6.90;;;4.00;;
40170;SDS011;37650;52.790;18.268;2023-01-28T02:06:12;8.40;;;4.20;;
40170;SDS011;37650;52.790;18.268;2023-01-28T02:12:58;7.20;;;4.00;;
40170;SDS011;37650;52.790;18.268;2023-01-28T02:16:20;5.20;;;3.10;;
40170;SDS011;37650;52.790;18.268;2023-01-28T02:19:53;6.10;;;4.00;;
40170;SDS011;37650;52.790;18.268;2023-01-28T02:23:35;6.00;;;4.10;;
40170;SDS011;37650;52.790;18.268;2023-01-28T02:30:39;9.30;;;5.70;;
40170;SDS011;37650;52.790;18.268;2023-01-28T02:34:14;11.50;;;6.90;;
40170;SDS011;37650;52.790;18.268;2023-01-28T02:37:45;11.70;;;7.70;;
40170;SDS011;37650;52.790;18.268;2023-01-28T02:41:16;15.30;;;8.80;;
40170;SDS011;37650;52.790;18.268;2023-01-28T02:44:44;10.50;;;7.60;;
40170;SDS011;37650;52.790;18.268;2023-01-28T02:48:06;10.70;;;7.40;;
40170;SDS011;37650;52.790;18.268;2023-01-28T02:51:43;13.70;;;8.50;;
40170;SDS011;37650;52.790;18.268;2023-01-28T02:55:20;10.70;;;7.30;;
40170;SDS011;37650;52.790;18.268;2023-01-28T03:03:31;12.90;;;7.80;;
40170;SDS011;37650;52.790;18.268;2023-01-28T03:06:59;11.30;;;7.10;;
40170;SDS011;37650;52.790;18.268;2023-01-28T03:10:25;11.20;;;7.20;;
40170;SDS011;37650;52.790;18.268;2023-01-28T03:13:47;9.00;;;5.70;;
40170;SDS011;37650;52.790;18.268;2023-01-28T03:17:33;8.50;;;5.90;;
40170;SDS011;37650;52.790;18.268;2023-01-28T03:21:55;10.10;;;6.20;;
40170;SDS011;37650;52.790;18.268;2023-01-28T03:25:28;10.50;;;6.10;;
40170;SDS011;37650;52.790;18.268;2023-01-28T03:29:09;15.40;;;8.70;;
40170;SDS011;37650;52.790;18.268;2023-01-28T03:32:53;10.80;;;6.30;;
40170;SDS011;37650;52.790;18.268;2023-01-28T03:36:36;9.60;;;6.70;;
40170;SDS011;37650;52.790;18.268;2023-01-28T03:40:47;10.50;;;5.70;;
40170;SDS011;37650;52.790;18.268;2023-01-28T03:44:13;9.00;;;6.50;;
40170;SDS011;37650;52.790;18.268;2023-01-28T03:47:54;9.20;;;6.60;;
40170;SDS011;37650;52.790;18.268;2023-01-28T03:51:15;11.50;;;6.70;;
40170;SDS011;37650;52.790;18.268;2023-01-28T03:54:37;10.50;;;7.50;;
40170;SDS011;37650;52.790;18.268;2023-01-28T03:57:58;10.50;;;7.40;;
40170;SDS011;37650;52.790;18.268;2023-01-28T04:01:20;12.50;;;6.90;;
40170;SDS011;37650;52.790;18.268;2023-01-28T04:04:41;12.60;;;8.30;;
40170;SDS011;37650;52.790;18.268;2023-01-28T04:08:03;13.90;;;8.10;;
40170;SDS011;37650;52.790;18.268;2023-01-28T04:11:35;9.20;;;6.60;;
40170;SDS011;37650;52.790;18.268;2023-01-28T04:14:58;12.00;;;8.00;;
40170;SDS011;37650;52.790;18.268;2023-01-28T04:18:21;13.50;;;7.60;;
40170;SDS011;37650;52.790;18.268;2023-01-28T04:21:49;15.90;;;8.80;;
40170;SDS011;37650;52.790;18.268;2023-01-28T04:25:14;14.30;;;8.70;;
40170;SDS011;37650;52.790;18.268;2023-01-28T04:28:37;14.40;;;8.60;;
40170;SDS011;37650;52.790;18.268;2023-01-28T04:31:58;11.80;;;7.50;;
40170;SDS011;37650;52.790;18.268;2023-01-28T04:35:33;12.50;;;7.30;;
40170;SDS011;37650;52.790;18.268;2023-01-28T04:39:04;14.30;;;8.60;;
40170;SDS011;37650;52.790;18.268;2023-01-28T04:42:31;12.30;;;8.30;;
40170;SDS011;37650;52.790;18.268;2023-01-28T04:46:04;11.90;;;7.80;;
40170;SDS011;37650;52.790;18.268;2023-01-28T04:49:33;10.60;;;7.30;;
40170;SDS011;37650;52.790;18.268;2023-01-28T04:53:16;31.20;;;26.40;;
40170;SDS011;37650;52.790;18.268;2023-01-28T04:56:54;21.60;;;14.90;;
40170;SDS011;37650;52.790;18.268;2023-01-28T05:00:16;17.00;;;12.20;;
40170;SDS011;37650;52.790;18.268;2023-01-28T05:03:38;16.60;;;10.10;;
40170;SDS011;37650;52.790;18.268;2023-01-28T05:07:01;13.20;;;8.30;;
40170;SDS011;37650;52.790;18.268;2023-01-28T05:10:26;17.70;;;13.50;;
40170;SDS011;37650;52.790;18.268;2023-01-28T05:13:48;13.50;;;9.10;;
40170;SDS011;37650;52.790;18.268;2023-01-28T05:17:11;11.40;;;7.30;;
40170;SDS011;37650;52.790;18.268;2023-01-28T05:20:33;11.30;;;7.60;;
40170;SDS011;37650;52.790;18.268;2023-01-28T05:23:55;11.40;;;6.60;;
40170;SDS011;37650;52.790;18.268;2023-01-28T05:27:16;12.10;;;6.80;;
40170;SDS011;37650;52.790;18.268;2023-01-28T05:30:38;9.60;;;5.70;;
40170;SDS011;37650;52.790;18.268;2023-01-28T05:34:00;10.40;;;6.80;;
40170;SDS011;37650;52.790;18.268;2023-01-28T05:37:22;11.90;;;7.10;;
40170;SDS011;37650;52.790;18.268;2023-01-28T05:40:47;8.50;;;5.00;;
40170;SDS011;37650;52.790;18.268;2023-01-28T05:44:09;13.20;;;7.20;;
40170;SDS011;37650;52.790;18.268;2023-01-28T05:47:49;19.10;;;11.50;;
40170;SDS011;37650;52.790;18.268;2023-01-28T05:51:19;18.00;;;10.80;;
40170;SDS011;37650;52.790;18.268;2023-01-28T05:54:47;14.30;;;8.50;;
40170;SDS011;37650;52.790;18.268;2023-01-28T05:58:08;13.00;;;8.70;;
40170;SDS011;37650;52.790;18.268;2023-01-28T06:01:30;13.90;;;7.80;;
40170;SDS011;37650;52.790;18.268;2023-01-28T06:04:52;10.70;;;7.90;;
40170;SDS011;37650;52.790;18.268;2023-01-28T06:08:13;12.60;;;8.20;;
40170;SDS011;37650;52.790;18.268;2023-01-28T06:11:35;12.70;;;7.70;;
40170;SDS011;37650;52.790;18.268;2023-01-28T06:14:58;13.70;;;8.20;;
40170;SDS011;37650;52.790;18.268;2023-01-28T06:18:45;14.60;;;9.00;;
40170;SDS011;37650;52.790;18.268;2023-01-28T06:22:06;13.40;;;7.90;;
40170;SDS011;37650;52.790;18.268;2023-01-28T06:25:28;10.30;;;7.60;;
40170;SDS011;37650;52.790;18.268;2023-01-28T06:28:53;16.80;;;8.40;;
40170;SDS011;37650;52.790;18.268;2023-01-28T06:32:14;10.30;;;5.40;;
40170;SDS011;37650;52.790;18.268;2023-01-28T06:35:35;14.50;;;10.00;;
40170;SDS011;37650;52.790;18.268;2023-01-28T06:38:57;11.50;;;6.60;;
40170;SDS011;37650;52.790;18.268;2023-01-28T06:42:18;11.10;;;6.30;;
40170;SDS011;37650;52.790;18.268;2023-01-28T06:45:39;13.80;;;6.70;;
40170;SDS011;37650;52.790;18.268;2023-01-28T06:49:01;20.30;;;10.20;;
40170;SDS011;37650;52.790;18.268;2023-01-28T06:52:22;23.30;;;12.50;;
40170;SDS011;37650;52.790;18.268;2023-01-28T06:59:38;19.60;;;10.80;;
40170;SDS011;37650;52.790;18.268;2023-01-28T07:02:59;18.40;;;10.80;;
40170;SDS011;37650;52.790;18.268;2023-01-28T07:06:20;15.40;;;9.40;;
40170;SDS011;37650;52.790;18.268;2023-01-28T07:09:42;20.20;;;11.50;;
40170;SDS011;37650;52.790;18.268;2023-01-28T07:13:03;21.70;;;10.90;;
40170;SDS011;37650;52.790;18.268;2023-01-28T07:16:24;12.50;;;7.70;;
40170;SDS011;37650;52.790;18.268;2023-01-28T07:19:45;12.60;;;9.40;;
40170;SDS011;37650;52.790;18.268;2023-01-28T07:23:06;14.90;;;9.50;;
40170;SDS011;37650;52.790;18.268;2023-01-28T07:26:27;14.20;;;9.30;;
40170;SDS011;37650;52.790;18.268;2023-01-28T07:29:48;13.20;;;8.70;;
40170;SDS011;37650;52.790;18.268;2023-01-28T07:33:09;14.40;;;10.30;;
40170;SDS011;37650;52.790;18.268;2023-01-28T07:36:30;12.90;;;8.50;;
40170;SDS011;37650;52.790;18.268;2023-01-28T07:39:52;11.10;;;6.90;;
40170;SDS011;37650;52.790;18.268;2023-01-28T07:43:13;7.80;;;5.90;;
40170;SDS011;37650;52.790;18.268;2023-01-28T07:46:35;12.50;;;7.80;;
40170;SDS011;37650;52.790;18.268;2023-01-28T07:49:56;11.30;;;8.60;;
40170;SDS011;37650;52.790;18.268;2023-01-28T07:53:18;12.00;;;9.30;;
40170;SDS011;37650;52.790;18.268;2023-01-28T07:56:40;59.30;;;38.70;;
40170;SDS011;37650;52.790;18.268;2023-01-28T08:00:01;30.40;;;21.00;;
40170;SDS011;37650;52.790;18.268;2023-01-28T08:03:33;17.30;;;13.90;;
40170;SDS011;37650;52.790;18.268;2023-01-28T08:10:50;15.20;;;10.20;;
40170;SDS011;37650;52.790;18.268;2023-01-28T08:14:11;14.70;;;9.80;;
40170;SDS011;37650;52.790;18.268;2023-01-28T08:17:32;15.90;;;10.90;;
40170;SDS011;37650;52.790;18.268;2023-01-28T08:20:57;16.80;;;11.90;;
40170;SDS011;37650;52.790;18.268;2023-01-28T08:24:19;23.00;;;13.40;;
40170;SDS011;37650;52.790;18.268;2023-01-28T08:27:41;17.00;;;11.00;;
40170;SDS011;37650;52.790;18.268;2023-01-28T08:31:02;17.00;;;11.20;;
40170;SDS011;37650;52.790;18.268;2023-01-28T08:34:23;15.30;;;9.50;;
40170;SDS011;37650;52.790;18.268;2023-01-28T08:37:44;17.30;;;10.80;;
40170;SDS011;37650;52.790;18.268;2023-01-28T08:41:05;18.90;;;11.80;;
40170;SDS011;37650;52.790;18.268;2023-01-28T08:44:27;22.40;;;12.80;;
40170;SDS011;37650;52.790;18.268;2023-01-28T08:51:23;18.10;;;11.80;;
40170;SDS011;37650;52.790;18.268;2023-01-28T08:54:44;16.30;;;9.30;;
40170;SDS011;37650;52.790;18.268;2023-01-28T08:58:06;18.00;;;9.90;;
40170;SDS011;37650;52.790;18.268;2023-01-28T09:01:31;13.80;;;9.20;;
40170;SDS011;37650;52.790;18.268;2023-01-28T09:04:53;17.80;;;12.90;;
40170;SDS011;37650;52.790;18.268;2023-01-28T09:08:15;17.60;;;11.90;;
40170;SDS011;37650;52.790;18.268;2023-01-28T09:11:36;17.80;;;10.10;;
40170;SDS011;37650;52.790;18.268;2023-01-28T09:14:58;17.80;;;12.10;;
40170;SDS011;37650;52.790;18.268;2023-01-28T09:18:19;16.20;;;9.20;;
40170;SDS011;37650;52.790;18.268;2023-01-28T09:21:40;16.90;;;11.50;;
40170;SDS011;37650;52.790;18.268;2023-01-28T09:25:02;109.80;;;57.40;;
40170;SDS011;37650;52.790;18.268;2023-01-28T09:28:23;116.50;;;52.50;;
40170;SDS011;37650;52.790;18.268;2023-01-28T09:31:45;199.80;;;86.10;;
40170;SDS011;37650;52.790;18.268;2023-01-28T09:35:06;141.80;;;61.90;;
40170;SDS011;37650;52.790;18.268;2023-01-28T09:38:28;70.40;;;40.50;;
40170;SDS011;37650;52.790;18.268;2023-01-28T09:45:46;17.40;;;11.40;;
40170;SDS011;37650;52.790;18.268;2023-01-28T09:49:19;19.70;;;13.70;;
40170;SDS011;37650;52.790;18.268;2023-01-28T09:52:47;12.60;;;8.60;;
40170;SDS011;37650;52.790;18.268;2023-01-28T09:56:30;20.50;;;13.70;;
40170;SDS011;37650;52.790;18.268;2023-01-28T09:59:55;11.60;;;7.50;;
40170;SDS011;37650;52.790;18.268;2023-01-28T10:03:21;21.30;;;13.30;;
40170;SDS011;37650;52.790;18.268;2023-01-28T10:07:21;15.00;;;8.70;;
40170;SDS011;37650;52.790;18.268;2023-01-28T10:10:57;18.60;;;11.90;;
40170;SDS011;37650;52.790;18.268;2023-01-28T10:22:28;19.30;;;12.50;;
40170;SDS011;37650;52.790;18.268;2023-01-28T10:25:51;14.20;;;8.80;;
40170;SDS011;37650;52.790;18.268;2023-01-28T10:29:19;19.70;;;12.80;;
40170;SDS011;37650;52.790;18.268;2023-01-28T10:33:09;25.30;;;16.70;;
40170;SDS011;37650;52.790;18.268;2023-01-28T10:36:32;11.10;;;6.80;;
40170;SDS011;37650;52.790;18.268;2023-01-28T10:39:55;12.90;;;8.30;;
40170;SDS011;37650;52.790;18.268;2023-01-28T10:43:19;15.50;;;8.50;;
40170;SDS011;37650;52.790;18.268;2023-01-28T10:46:44;16.40;;;8.90;;
40170;SDS011;37650;52.790;18.268;2023-01-28T10:50:19;11.80;;;7.80;;
40170;SDS011;37650;52.790;18.268;2023-01-28T10:53:44;14.70;;;9.90;;
40170;SDS011;37650;52.790;18.268;2023-01-28T10:57:09;24.20;;;14.90;;
40170;SDS011;37650;52.790;18.268;2023-01-28T11:00:35;22.00;;;15.10;;
40170;SDS011;37650;52.790;18.268;2023-01-28T11:03:57;31.80;;;20.30;;
40170;SDS011;37650;52.790;18.268;2023-01-28T11:07:20;39.10;;;25.50;;
40170;SDS011;37650;52.790;18.268;2023-01-28T11:10:41;31.90;;;19.20;;
40170;SDS011;37650;52.790;18.268;2023-01-28T11:14:04;21.90;;;14.70;;
40170;SDS011;37650;52.790;18.268;2023-01-28T11:17:27;25.30;;;16.30;;
40170;SDS011;37650;52.790;18.268;2023-01-28T11:20:54;28.10;;;15.80;;
40170;SDS011;37650;52.790;18.268;2023-01-28T11:24:21;22.60;;;14.50;;
40170;SDS011;37650;52.790;18.268;2023-01-28T11:27:47;22.60;;;13.80;;
40170;SDS011;37650;52.790;18.268;2023-01-28T11:31:11;24.60;;;15.00;;
40170;SDS011;37650;52.790;18.268;2023-01-28T11:34:35;28.40;;;17.70;;
40170;SDS011;37650;52.790;18.268;2023-01-28T11:37:57;21.90;;;14.30;;
40170;SDS011;37650;52.790;18.268;2023-01-28T11:41:26;24.00;;;15.80;;
40170;SDS011;37650;52.790;18.268;2023-01-28T11:44:50;20.40;;;12.10;;
40170;SDS011;37650;52.790;18.268;2023-01-28T11:48:23;18.80;;;12.70;;
40170;SDS011;37650;52.790;18.268;2023-01-28T12:06:25;22.60;;;12.30;;
40170;SDS011;37650;52.790;18.268;2023-01-28T12:10:24;21.20;;;11.20;;
40170;SDS011;37650;52.790;18.268;2023-01-28T12:14:07;14.20;;;8.60;;
40170;SDS011;37650;52.790;18.268;2023-01-28T12:17:51;12.20;;;7.30;;
40170;SDS011;37650;52.790;18.268;2023-01-28T12:29:14;13.30;;;7.60;;
40170;SDS011;37650;52.790;18.268;2023-01-28T12:36:57;12.60;;;6.60;;
40170;SDS011;37650;52.790;18.268;2023-01-28T12:44:22;11.40;;;6.40;;
40170;SDS011;37650;52.790;18.268;2023-01-28T12:47:50;13.30;;;7.40;;
40170;SDS011;37650;52.790;18.268;2023-01-28T12:51:20;12.00;;;7.20;;
40170;SDS011;37650;52.790;18.268;2023-01-28T12:58:32;11.40;;;7.20;;
40170;SDS011;37650;52.790;18.268;2023-01-28T13:05:37;12.70;;;6.50;;
40170;SDS011;37650;52.790;18.268;2023-01-28T13:09:20;13.10;;;6.20;;
40170;SDS011;37650;52.790;18.268;2023-01-28T13:12:44;14.10;;;7.10;;
40170;SDS011;37650;52.790;18.268;2023-01-28T13:16:07;11.80;;;5.80;;
40170;SDS011;37650;52.790;18.268;2023-01-28T13:19:40;13.90;;;8.30;;
40170;SDS011;37650;52.790;18.268;2023-01-28T13:23:02;10.90;;;6.50;;
40170;SDS011;37650;52.790;18.268;2023-01-28T13:30:24;10.20;;;5.40;;
40170;SDS011;37650;52.790;18.268;2023-01-28T13:40:58;14.50;;;7.20;;
40170;SDS011;37650;52.790;18.268;2023-01-28T13:47:54;13.40;;;6.40;;
40170;SDS011;37650;52.790;18.268;2023-01-28T13:51:38;13.30;;;5.50;;
40170;SDS011;37650;52.790;18.268;2023-01-28T14:02:56;15.10;;;9.00;;
40170;SDS011;37650;52.790;18.268;2023-01-28T14:07:00;10.70;;;6.60;;
40170;SDS011;37650;52.790;18.268;2023-01-28T14:18:00;11.90;;;6.70;;
40170;SDS011;37650;52.790;18.268;2023-01-28T14:21:31;13.20;;;7.80;;
40170;SDS011;37650;52.790;18.268;2023-01-28T14:24:55;12.80;;;7.20;;
40170;SDS011;37650;52.790;18.268;2023-01-28T14:28:33;10.10;;;6.30;;
40170;SDS011;37650;52.790;18.268;2023-01-28T14:32:44;14.70;;;8.20;;
40170;SDS011;37650;52.790;18.268;2023-01-28T14:35:48;10.90;;;5.90;;
40170;SDS011;37650;52.790;18.268;2023-01-28T14:39:17;11.10;;;6.00;;
40170;SDS011;37650;52.790;18.268;2023-01-28T14:42:42;8.10;;;5.20;;
40170;SDS011;37650;52.790;18.268;2023-01-28T14:46:19;14.60;;;8.60;;
40170;SDS011;37650;52.790;18.268;2023-01-28T14:53:57;6.90;;;4.10;;
40170;SDS011;37650;52.790;18.268;2023-01-28T14:57:49;9.60;;;5.00;;
40170;SDS011;37650;52.790;18.268;2023-01-28T15:01:24;12.70;;;7.30;;
40170;SDS011;37650;52.790;18.268;2023-01-28T15:04:46;16.30;;;8.90;;
40170;SDS011;37650;52.790;18.268;2023-01-28T15:08:18;14.40;;;7.70;;
40170;SDS011;37650;52.790;18.268;2023-01-28T15:11:41;12.50;;;7.20;;
40170;SDS011;37650;52.790;18.268;2023-01-28T15:18:51;15.20;;;9.80;;
40170;SDS011;37650;52.790;18.268;2023-01-28T15:22:12;12.10;;;8.50;;
40170;SDS011;37650;52.790;18.268;2023-01-28T15:25:35;10.40;;;6.80;;
40170;SDS011;37650;52.790;18.268;2023-01-28T15:28:57;9.00;;;6.70;;
40170;SDS011;37650;52.790;18.268;2023-01-28T15:32:26;9.10;;;6.20;;
40170;SDS011;37650;52.790;18.268;2023-01-28T15:35:49;8.70;;;5.90;;
40170;SDS011;37650;52.790;18.268;2023-01-28T15:39:13;25.40;;;17.10;;
40170;SDS011;37650;52.790;18.268;2023-01-28T15:42:40;14.60;;;8.70;;
40170;SDS011;37650;52.790;18.268;2023-01-28T15:46:01;14.20;;;9.10;;
40170;SDS011;37650;52.790;18.268;2023-01-28T15:52:51;9.80;;;7.50;;
40170;SDS011;37650;52.790;18.268;2023-01-28T15:56:15;16.10;;;9.90;;
40170;SDS011;37650;52.790;18.268;2023-01-28T15:59:45;29.70;;;14.60;;
40170;SDS011;37650;52.790;18.268;2023-01-28T16:03:17;11.90;;;7.40;;
40170;SDS011;37650;52.790;18.268;2023-01-28T16:06:40;23.10;;;15.20;;
40170;SDS011;37650;52.790;18.268;2023-01-28T16:10:02;22.50;;;11.50;;
40170;SDS011;37650;52.790;18.268;2023-01-28T16:13:25;20.20;;;12.10;;
40170;SDS011;37650;52.790;18.268;2023-01-28T16:16:49;14.10;;;9.20;;
40170;SDS011;37650;52.790;18.268;2023-01-28T16:20:21;12.50;;;8.00;;
40170;SDS011;37650;52.790;18.268;2023-01-28T16:27:43;41.20;;;20.50;;
40170;SDS011;37650;52.790;18.268;2023-01-28T16:31:08;38.40;;;20.50;;
40170;SDS011;37650;52.790;18.268;2023-01-28T16:34:31;45.80;;;21.90;;
40170;SDS011;37650;52.790;18.268;2023-01-28T16:37:53;50.20;;;23.00;;
40170;SDS011;37650;52.790;18.268;2023-01-28T16:41:25;54.50;;;26.40;;
40170;SDS011;37650;52.790;18.268;2023-01-28T16:44:49;46.50;;;23.80;;
40170;SDS011;37650;52.790;18.268;2023-01-28T16:48:11;46.70;;;27.20;;
40170;SDS011;37650;52.790;18.268;2023-01-28T16:51:32;71.80;;;34.00;;
40170;SDS011;37650;52.790;18.268;2023-01-28T16:54:56;134.20;;;61.80;;
40170;SDS011;37650;52.790;18.268;2023-01-28T16:58:18;71.80;;;33.50;;
40170;SDS011;37650;52.790;18.268;2023-01-28T17:01:43;29.00;;;16.80;;
40170;SDS011;37650;52.790;18.268;2023-01-28T17:05:07;23.50;;;14.10;;
40170;SDS011;37650;52.790;18.268;2023-01-28T17:08:32;36.70;;;23.90;;
40170;SDS011;37650;52.790;18.268;2023-01-28T17:11:53;24.50;;;14.50;;
40170;SDS011;37650;52.790;18.268;2023-01-28T17:15:14;26.30;;;16.80;;
40170;SDS011;37650;52.790;18.268;2023-01-28T17:18:36;118.20;;;40.70;;
40170;SDS011;37650;52.790;18.268;2023-01-28T17:21:58;462.50;;;171.30;;
40170;SDS011;37650;52.790;18.268;2023-01-28T17:25:19;53.20;;;31.00;;
40170;SDS011;37650;52.790;18.268;2023-01-28T17:28:41;281.50;;;72.50;;
40170;SDS011;37650;52.790;18.268;2023-01-28T17:32:04;463.20;;;129.20;;
40170;SDS011;37650;52.790;18.268;2023-01-28T17:38:49;391.00;;;113.90;;
40170;SDS011;37650;52.790;18.268;2023-01-28T17:42:12;245.80;;;72.90;;
40170;SDS011;37650;52.790;18.268;2023-01-28T17:45:36;44.30;;;21.00;;
40170;SDS011;37650;52.790;18.268;2023-01-28T17:48:57;34.70;;;18.10;;
40170;SDS011;37650;52.790;18.268;2023-01-28T17:52:18;86.90;;;38.80;;
40170;SDS011;37650;52.790;18.268;2023-01-28T17:55:41;95.70;;;48.00;;
40170;SDS011;37650;52.790;18.268;2023-01-28T17:59:03;73.30;;;38.90;;
40170;SDS011;37650;52.790;18.268;2023-01-28T18:02:26;53.00;;;27.10;;
40170;SDS011;37650;52.790;18.268;2023-01-28T18:05:57;81.90;;;46.70;;
40170;SDS011;37650;52.790;18.268;2023-01-28T18:09:19;51.80;;;30.50;;
40170;SDS011;37650;52.790;18.268;2023-01-28T18:12:41;42.60;;;24.80;;
40170;SDS011;37650;52.790;18.268;2023-01-28T18:16:04;38.10;;;23.20;;
40170;SDS011;37650;52.790;18.268;2023-01-28T18:19:29;24.40;;;15.30;;
40170;SDS011;37650;52.790;18.268;2023-01-28T18:22:51;25.50;;;14.80;;
40170;SDS011;37650;52.790;18.268;2023-01-28T18:26:13;23.50;;;15.50;;
40170;SDS011;37650;52.790;18.268;2023-01-28T18:29:35;21.20;;;13.10;;
40170;SDS011;37650;52.790;18.268;2023-01-28T18:32:57;20.10;;;9.80;;
40170;SDS011;37650;52.790;18.268;2023-01-28T18:36:19;15.60;;;8.90;;
40170;SDS011;37650;52.790;18.268;2023-01-28T18:39:41;25.90;;;19.30;;
40170;SDS011;37650;52.790;18.268;2023-01-28T18:43:04;15.80;;;10.70;;
40170;SDS011;37650;52.790;18.268;2023-01-28T18:46:27;19.80;;;10.50;;
40170;SDS011;37650;52.790;18.268;2023-01-28T18:49:52;24.30;;;15.10;;
40170;SDS011;37650;52.790;18.268;2023-01-28T18:53:13;19.80;;;13.00;;
40170;SDS011;37650;52.790;18.268;2023-01-28T18:56:34;20.60;;;11.30;;
40170;SDS011;37650;52.790;18.268;2023-01-28T18:59:56;14.60;;;9.30;;
40170;SDS011;37650;52.790;18.268;2023-01-28T19:03:19;16.80;;;10.70;;
40170;SDS011;37650;52.790;18.268;2023-01-28T19:06:41;28.80;;;15.90;;
40170;SDS011;37650;52.790;18.268;2023-01-28T19:10:04;160.90;;;56.40;;
40170;SDS011;37650;52.790;18.268;2023-01-28T19:16:48;212.20;;;57.50;;
40170;SDS011;37650;52.790;18.268;2023-01-28T19:20:10;27.00;;;13.30;;
40170;SDS011;37650;52.790;18.268;2023-01-28T19:23:32;408.30;;;106.00;;
40170;SDS011;37650;52.790;18.268;2023-01-28T19:26:56;108.00;;;30.80;;
40170;SDS011;37650;52.790;18.268;2023-01-28T19:30:20;28.20;;;15.10;;
40170;SDS011;37650;52.790;18.268;2023-01-28T19:33:48;27.40;;;16.30;;
40170;SDS011;37650;52.790;18.268;2023-01-28T19:37:15;220.70;;;53.40;;
40170;SDS011;37650;52.790;18.268;2023-01-28T19:40:37;160.40;;;48.50;;
40170;SDS011;37650;52.790;18.268;2023-01-28T19:44:00;255.80;;;84.30;;
40170;SDS011;37650;52.790;18.268;2023-01-28T19:47:22;251.70;;;94.30;;
40170;SDS011;37650;52.790;18.268;2023-01-28T19:50:45;68.20;;;30.80;;
40170;SDS011;37650;52.790;18.268;2023-01-28T19:54:07;115.70;;;52.60;;
40170;SDS011;37650;52.790;18.268;2023-01-28T19:57:29;30.00;;;18.10;;
40170;SDS011;37650;52.790;18.268;2023-01-28T20:01:01;28.30;;;15.30;;
40170;SDS011;37650;52.790;18.268;2023-01-28T20:04:37;36.60;;;26.60;;
40170;SDS011;37650;52.790;18.268;2023-01-28T20:08:00;17.80;;;11.30;;
40170;SDS011;37650;52.790;18.268;2023-01-28T20:11:23;26.60;;;16.30;;
40170;SDS011;37650;52.790;18.268;2023-01-28T20:14:45;34.70;;;20.20;;
40170;SDS011;37650;52.790;18.268;2023-01-28T20:18:07;42.70;;;21.50;;
40170;SDS011;37650;52.790;18.268;2023-01-28T20:21:30;19.30;;;13.00;;
40170;SDS011;37650;52.790;18.268;2023-01-28T20:24:54;21.70;;;13.70;;
40170;SDS011;37650;52.790;18.268;2023-01-28T20:28:19;20.40;;;13.30;;
40170;SDS011;37650;52.790;18.268;2023-01-28T20:31:46;79.00;;;37.30;;
40170;SDS011;37650;52.790;18.268;2023-01-28T20:35:10;28.00;;;15.10;;
40170;SDS011;37650;52.790;18.268;2023-01-28T20:38:38;20.40;;;13.10;;
40170;SDS011;37650;52.790;18.268;2023-01-28T20:42:02;19.60;;;11.30;;
40170;SDS011;37650;52.790;18.268;2023-01-28T20:45:29;27.30;;;15.80;;
40170;SDS011;37650;52.790;18.268;2023-01-28T20:48:51;63.20;;;33.80;;
40170;SDS011;37650;52.790;18.268;2023-01-28T20:52:16;64.50;;;26.30;;
40170;SDS011;37650;52.790;18.268;2023-01-28T20:55:40;34.00;;;16.60;;
40170;SDS011;37650;52.790;18.268;2023-01-28T20:59:03;76.80;;;27.60;;
40170;SDS011;37650;52.790;18.268;2023-01-28T21:02:29;87.90;;;45.30;;
40170;SDS011;37650;52.790;18.268;2023-01-28T21:05:54;52.70;;;24.80;;
40170;SDS011;37650;52.790;18.268;2023-01-28T21:09:16;30.90;;;14.30;;
40170;SDS011;37650;52.790;18.268;2023-01-28T21:16:02;42.40;;;20.00;;
40170;SDS011;37650;52.790;18.268;2023-01-28T21:19:28;31.20;;;15.50;;
40170;SDS011;37650;52.790;18.268;2023-01-28T21:26:12;114.30;;;61.40;;
40170;SDS011;37650;52.790;18.268;2023-01-28T21:29:36;59.00;;;28.00;;
40170;SDS011;37650;52.790;18.268;2023-01-28T21:32:58;61.70;;;28.90;;
40170;SDS011;37650;52.790;18.268;2023-01-28T21:36:20;56.40;;;26.40;;
40170;SDS011;37650;52.790;18.268;2023-01-28T21:39:44;98.00;;;48.00;;
40170;SDS011;37650;52.790;18.268;2023-01-28T21:43:07;44.40;;;19.40;;
40170;SDS011;37650;52.790;18.268;2023-01-28T21:46:29;43.20;;;17.90;;
40170;SDS011;37650;52.790;18.268;2023-01-28T21:49:53;57.30;;;27.70;;
40170;SDS011;37650;52.790;18.268;2023-01-28T21:53:15;87.90;;;39.40;;
40170;SDS011;37650;52.790;18.268;2023-01-28T21:56:36;65.40;;;29.90;;
40170;SDS011;37650;52.790;18.268;2023-01-28T21:59:58;49.00;;;21.50;;
40170;SDS011;37650;52.790;18.268;2023-01-28T22:03:19;32.10;;;15.60;;
40170;SDS011;37650;52.790;18.268;2023-01-28T22:06:41;72.90;;;35.80;;